Time;durP1;ratioP1;P1;durP2;ratioP2;P2;SDS_P1;SDS_P2;PMS_P1;PMS_P2;Temp;Humidity;BMP_temperature;BMP_pressure;BME280_temperature;BME280_humidity;BME280_pressure;Samples;Min_cycle;Max_cycle;Signal;HPM_P1;HPM_P2
2021/01/11 00:00:33;;;;;;;5.70;4.03;;;0.30;99.90;;;;;;5057600;28;20228;-71
2021/01/11 00:02:59;;;;;;;9.70;5.80;;;0.30;99.90;;;;;;5073045;28;20207;-70
2021/01/11 00:05:25;;;;;;;12.57;5.30;;;0.30;99.90;;;;;;5101993;27;20451;-70
2021/01/11 00:07:51;;;;;;;9.20;5.60;;;0.30;99.90;;;;;;5093873;28;20240;-70
2021/01/11 00:10:17;;;;;;;9.90;5.40;;;0.30;99.90;;;;;;5101936;27;20452;-71
2021/01/11 00:12:44;;;;;;;8.50;4.30;;;0.30;99.90;;;;;;5102636;28;20309;-71
2021/01/11 00:15:12;;;;;;;13.23;6.40;;;0.30;99.90;;;;;;5102700;27;20566;-70
2021/01/11 00:17:38;;;;;;;8.10;4.70;;;0.30;99.90;;;;;;5092403;27;20463;-70
2021/01/11 00:20:06;;;;;;;6.50;4.67;;;0.30;99.90;;;;;;5089653;28;20470;-69
2021/01/11 00:22:32;;;;;;;8.30;4.60;;;0.30;99.90;;;;;;5079252;27;20452;-69
2021/01/11 00:24:58;;;;;;;7.30;4.87;;;0.30;99.90;;;;;;5097822;27;20452;-69
2021/01/11 00:27:24;;;;;;;5.77;2.93;;;0.20;99.90;;;;;;5080901;27;20531;-69
2021/01/11 00:29:49;;;;;;;8.07;4.87;;;0.20;99.90;;;;;;5079825;28;20280;-68
2021/01/11 00:32:15;;;;;;;7.07;4.40;;;0.10;99.90;;;;;;5064446;27;20221;-69
2021/01/11 00:34:41;;;;;;;10.07;4.53;;;0.20;99.90;;;;;;5098786;27;20214;-69
2021/01/11 00:37:09;;;;;;;6.63;3.67;;;0.20;99.90;;;;;;5077791;28;20229;-68
2021/01/11 00:39:35;;;;;;;4.90;4.43;;;0.10;99.90;;;;;;5081493;27;20218;-68
2021/01/11 00:42:01;;;;;;;8.63;4.93;;;0.20;99.90;;;;;;5117045;27;20459;-69
2021/01/11 00:44:28;;;;;;;9.30;4.60;;;0.20;99.90;;;;;;5077582;28;20229;-69
2021/01/11 00:47:00;;;;;;;9.23;5.43;;;0.10;99.90;;;;;;5071559;28;20454;-70
2021/01/11 00:49:27;;;;;;;6.23;3.03;;;0.10;99.90;;;;;;5088980;28;21029;-72
2021/01/11 00:51:52;;;;;;;6.87;4.30;;;0.10;99.90;;;;;;5114225;27;20443;-68
2021/01/11 00:54:19;;;;;;;7.70;3.93;;;0.10;99.90;;;;;;5064281;28;20441;-69
2021/01/11 00:56:45;;;;;;;6.73;4.00;;;0.10;99.90;;;;;;5079520;27;20538;-69
2021/01/11 00:59:22;;;;;;;5.93;3.40;;;0.10;99.90;;;;;;5067689;28;20445;-69
2021/01/11 01:01:51;;;;;;;5.73;4.40;;;0.10;99.90;;;;;;5084118;28;20555;-69
2021/01/11 01:04:21;;;;;;;6.20;3.60;;;0.10;99.90;;;;;;5049304;28;20237;-70
2021/01/11 01:06:47;;;;;;;8.60;4.13;;;0.00;99.90;;;;;;5054295;28;20456;-69
2021/01/11 01:09:13;;;;;;;7.33;3.90;;;0.00;99.90;;;;;;5080010;27;20210;-69
2021/01/11 01:11:40;;;;;;;4.13;3.73;;;0.00;99.90;;;;;;5113588;27;20697;-70
2021/01/11 01:14:08;;;;;;;6.60;4.13;;;0.00;99.90;;;;;;5097015;27;20468;-69
2021/01/11 01:16:33;;;;;;;7.00;3.60;;;0.00;99.90;;;;;;5079538;27;20455;-69
2021/01/11 01:18:59;;;;;;;12.20;4.43;;;0.00;99.90;;;;;;5082747;27;21004;-68
2021/01/11 01:21:25;;;;;;;4.23;3.33;;;0.00;99.90;;;;;;5078783;28;20215;-70
2021/01/11 01:23:51;;;;;;;4.00;2.90;;;-0.10;99.90;;;;;;5081224;28;20453;-69
2021/01/11 01:26:18;;;;;;;4.13;2.10;;;-0.10;99.90;;;;;;5088607;28;20218;-69
2021/01/11 01:28:43;;;;;;;7.63;3.60;;;-0.20;99.90;;;;;;5111854;27;20471;-69
2021/01/11 01:31:09;;;;;;;7.57;3.73;;;-0.10;99.90;;;;;;5081712;28;20448;-69
2021/01/11 01:33:35;;;;;;;3.87;2.90;;;-0.10;99.90;;;;;;5060460;28;20214;-69
2021/01/11 01:36:01;;;;;;;5.30;3.30;;;-0.10;99.90;;;;;;5059587;28;20706;-69
2021/01/11 01:38:26;;;;;;;8.83;4.50;;;-0.10;99.90;;;;;;5075902;28;20250;-68
2021/01/11 01:40:52;;;;;;;10.40;4.40;;;-0.10;99.90;;;;;;5086961;27;20224;-68
2021/01/11 01:43:18;;;;;;;5.73;3.20;;;-0.20;99.90;;;;;;5094845;27;20252;-69
2021/01/11 01:45:43;;;;;;;5.87;3.20;;;-0.10;99.90;;;;;;5131666;27;20240;-69
2021/01/11 01:48:10;;;;;;;5.60;4.50;;;-0.10;99.90;;;;;;5083588;27;20266;-69
2021/01/11 01:50:38;;;;;;;7.57;4.43;;;-0.10;99.90;;;;;;5076096;28;20285;-69
2021/01/11 01:53:04;;;;;;;7.00;4.70;;;-0.10;99.90;;;;;;5076223;28;20456;-69
2021/01/11 01:55:30;;;;;;;6.10;3.70;;;-0.10;99.90;;;;;;5075661;28;20460;-69
2021/01/11 01:58:01;;;;;;;4.53;3.27;;;-0.10;99.90;;;;;;5077018;27;20925;-69
2021/01/11 02:00:27;;;;;;;7.23;3.87;;;-0.10;99.90;;;;;;5083830;28;20477;-71
2021/01/11 02:02:52;;;;;;;8.23;3.60;;;-0.10;99.90;;;;;;5072845;28;20910;-70
2021/01/11 02:05:18;;;;;;;5.10;4.07;;;-0.10;99.90;;;;;;5041676;28;20224;-70
2021/01/11 02:07:50;;;;;;;5.13;3.60;;;-0.10;99.90;;;;;;5081136;28;20223;-70
2021/01/11 02:10:42;;;;;;;7.00;3.93;;;-0.20;99.90;;;;;;5090872;28;20229;-70
2021/01/11 02:13:16;;;;;;;3.93;3.03;;;-0.40;99.90;;;;;;5088346;28;20444;-71
2021/01/11 02:15:56;;;;;;;7.97;3.67;;;-0.40;99.90;;;;;;5075794;28;20515;-69
2021/01/11 02:18:52;;;;;;;10.63;4.40;;;-0.40;99.90;;;;;;5092904;28;20460;-70
2021/01/11 02:21:50;;;;;;;6.40;3.40;;;-0.40;99.90;;;;;;5055080;28;20990;-69
2021/01/11 02:24:37;;;;;;;9.07;5.33;;;-0.40;99.90;;;;;;5088981;28;20455;-69
2021/01/11 02:27:26;;;;;;;6.80;4.20;;;-0.40;99.90;;;;;;5105332;28;20441;-69
2021/01/11 02:30:23;;;;;;;7.90;4.77;;;-0.30;99.90;;;;;;5092527;28;20445;-68
2021/01/11 02:32:52;;;;;;;7.17;4.10;;;-0.30;99.90;;;;;;5084374;27;20824;-70
2021/01/11 02:35:19;;;;;;;6.70;4.03;;;-0.30;99.90;;;;;;5077124;28;20436;-69
2021/01/11 02:37:46;;;;;;;10.40;4.60;;;-0.30;99.90;;;;;;5075681;28;20463;-69
2021/01/11 02:40:12;;;;;;;5.57;4.43;;;-0.30;99.90;;;;;;5061992;28;20792;-71
2021/01/11 02:42:38;;;;;;;8.30;3.70;;;-0.30;99.90;;;;;;5072226;28;20498;-69
2021/01/11 02:45:07;;;;;;;5.57;3.57;;;-0.40;99.90;;;;;;5061888;28;20471;-69
2021/01/11 02:47:58;;;;;;;7.10;2.83;;;-0.40;99.90;;;;;;5090647;28;21004;-67
2021/01/11 02:50:25;;;;;;;5.13;3.63;;;-0.40;99.90;;;;;;5106503;28;20456;-68
2021/01/11 02:53:32;;;;;;;6.50;4.80;;;-0.30;99.90;;;;;;5078382;28;20502;-68
2021/01/11 02:56:03;;;;;;;6.03;2.80;;;-0.40;99.90;;;;;;5053043;28;20656;-69
2021/01/11 02:58:46;;;;;;;6.63;3.73;;;-0.30;99.90;;;;;;5089443;28;20463;-69
2021/01/11 03:01:16;;;;;;;7.77;4.53;;;-0.30;99.90;;;;;;5091864;28;20532;-70
2021/01/11 03:03:47;;;;;;;3.53;2.37;;;-0.40;99.90;;;;;;5067084;28;20467;-68
2021/01/11 03:06:13;;;;;;;6.10;2.53;;;-0.40;99.90;;;;;;5075318;28;20490;-68
2021/01/11 03:08:39;;;;;;;5.57;3.40;;;-0.40;99.90;;;;;;5092354;28;20448;-68
2021/01/11 03:11:05;;;;;;;8.00;3.83;;;-0.40;99.90;;;;;;5075002;28;20457;-70
2021/01/11 03:13:30;;;;;;;9.87;3.30;;;-0.40;99.90;;;;;;5074890;28;20263;-69
2021/01/11 03:15:56;;;;;;;6.97;4.70;;;-0.40;99.90;;;;;;5058449;28;20274;-68
2021/01/11 03:18:22;;;;;;;5.60;3.73;;;-0.40;99.90;;;;;;5072824;28;20245;-70
2021/01/11 03:20:48;;;;;;;9.30;3.90;;;-0.40;99.90;;;;;;5086002;28;20249;-70
2021/01/11 03:23:13;;;;;;;8.80;4.17;;;-0.40;99.90;;;;;;5095824;28;20217;-71
2021/01/11 03:25:42;;;;;;;4.70;3.80;;;-0.50;99.90;;;;;;5075859;28;20706;-70
2021/01/11 03:28:08;;;;;;;5.73;3.03;;;-0.50;99.90;;;;;;5074943;28;20214;-71
2021/01/11 03:30:34;;;;;;;5.17;3.33;;;-0.50;99.90;;;;;;5075459;28;20968;-71
2021/01/11 03:33:00;;;;;;;5.00;4.17;;;-0.50;99.90;;;;;;5074509;28;20226;-70
2021/01/11 03:35:28;;;;;;;6.93;4.00;;;-0.50;99.90;;;;;;5083712;28;20447;-70
2021/01/11 03:37:53;;;;;;;4.70;3.47;;;-0.50;99.90;;;;;;5071325;28;20258;-71
2021/01/11 03:40:24;;;;;;;8.40;5.07;;;-0.60;99.90;;;;;;5071588;27;20485;-71
2021/01/11 03:42:50;;;;;;;8.67;4.73;;;-0.60;99.90;;;;;;5085386;27;20221;-70
2021/01/11 03:45:23;;;;;;;6.77;4.57;;;-0.60;99.90;;;;;;5075251;28;20510;-70
2021/01/11 03:47:48;;;;;;;7.33;4.20;;;-0.60;99.90;;;;;;5075837;28;20233;-71
2021/01/11 03:50:14;;;;;;;7.13;4.27;;;-0.60;99.90;;;;;;5062084;28;20524;-71
2021/01/11 03:52:40;;;;;;;8.00;4.60;;;-0.60;99.90;;;;;;5052691;28;20628;-70
2021/01/11 03:55:06;;;;;;;5.40;3.93;;;-0.60;99.90;;;;;;5082679;28;20226;-70
2021/01/11 03:57:32;;;;;;;3.47;2.80;;;-0.60;99.90;;;;;;5071133;27;20418;-70
2021/01/11 04:00:00;;;;;;;6.43;4.03;;;-0.60;99.90;;;;;;5078002;28;20512;-71
2021/01/11 04:02:26;;;;;;;7.87;3.93;;;-0.60;99.90;;;;;;5079532;28;20256;-71
2021/01/11 04:04:52;;;;;;;8.43;4.80;;;-0.60;99.90;;;;;;5105375;27;20475;-71
2021/01/11 04:07:18;;;;;;;8.70;4.80;;;-0.60;99.90;;;;;;5097343;28;20230;-70
2021/01/11 04:09:44;;;;;;;11.60;6.13;;;-0.60;99.90;;;;;;5082400;27;20221;-70
2021/01/11 04:12:09;;;;;;;9.80;5.57;;;-0.60;99.90;;;;;;5071082;28;20219;-70
2021/01/11 04:14:35;;;;;;;9.50;6.27;;;-0.60;99.90;;;;;;5079100;28;20456;-71
2021/01/11 04:17:01;;;;;;;20.77;9.07;;;-0.60;99.90;;;;;;5078781;28;20226;-70
2021/01/11 04:19:26;;;;;;;27.10;12.70;;;-0.70;99.90;;;;;;5055804;28;20211;-69
2021/01/11 04:21:52;;;;;;;18.63;9.60;;;-0.60;99.90;;;;;;5072440;28;20219;-70
2021/01/11 04:24:18;;;;;;;15.10;8.60;;;-0.70;99.90;;;;;;5078396;28;20295;-70
2021/01/11 04:26:44;;;;;;;12.83;6.97;;;-0.70;99.90;;;;;;5078429;28;20219;-71
2021/01/11 04:29:10;;;;;;;9.23;5.60;;;-0.70;99.90;;;;;;5094699;28;20702;-70
2021/01/11 04:31:35;;;;;;;8.40;5.03;;;-0.70;99.90;;;;;;5077725;28;20531;-70
2021/01/11 04:34:01;;;;;;;6.00;4.30;;;-0.80;99.90;;;;;;5078170;28;20214;-69
2021/01/11 04:36:27;;;;;;;6.60;4.50;;;-0.80;99.90;;;;;;5069432;28;20230;-69
2021/01/11 04:38:52;;;;;;;9.43;4.83;;;-0.80;99.90;;;;;;5094351;28;20251;-69
2021/01/11 04:41:20;;;;;;;7.73;4.93;;;-0.80;99.90;;;;;;5073803;28;20222;-70
2021/01/11 04:43:48;;;;;;;9.77;4.37;;;-0.80;99.90;;;;;;5083652;27;20238;-70
2021/01/11 04:46:14;;;;;;;8.47;5.40;;;-0.80;99.90;;;;;;5098964;27;20465;-71
2021/01/11 04:48:43;;;;;;;7.70;4.70;;;-0.80;99.90;;;;;;5089367;27;20489;-70
2021/01/11 04:51:10;;;;;;;8.80;4.27;;;-0.80;99.90;;;;;;5096552;27;20222;-70
2021/01/11 04:53:41;;;;;;;9.20;4.60;;;-0.90;99.90;;;;;;5098997;27;20509;-69
2021/01/11 04:56:11;;;;;;;6.07;4.53;;;-0.90;99.90;;;;;;5080712;27;20459;-69
2021/01/11 04:58:55;;;;;;;6.23;5.47;;;-0.90;99.90;;;;;;5086571;28;20459;-71
2021/01/11 05:01:30;;;;;;;6.83;3.87;;;-0.90;99.90;;;;;;5075778;28;20448;-70
2021/01/11 05:04:00;;;;;;;8.30;3.70;;;-0.90;99.90;;;;;;5061330;28;20470;-70
2021/01/11 05:06:26;;;;;;;6.40;4.40;;;-0.90;99.90;;;;;;5096062;28;20480;-70
2021/01/11 05:08:52;;;;;;;5.77;3.57;;;-0.90;99.90;;;;;;5079284;28;20940;-71
2021/01/11 05:11:18;;;;;;;6.07;4.03;;;-0.90;99.90;;;;;;5079115;28;20440;-70
2021/01/11 05:13:44;;;;;;;9.07;5.10;;;-0.90;99.90;;;;;;5072637;28;20223;-69
2021/01/11 05:16:12;;;;;;;4.37;3.60;;;-0.90;99.90;;;;;;5091864;28;20299;-70
2021/01/11 05:18:37;;;;;;;11.23;5.70;;;-0.90;99.90;;;;;;5077099;28;20492;-70
2021/01/11 05:21:03;;;;;;;11.67;6.53;;;-0.90;99.90;;;;;;5068819;28;20972;-69
2021/01/11 05:23:35;;;;;;;7.00;4.67;;;-0.90;99.90;;;;;;5070783;28;20225;-71
2021/01/11 05:26:12;;;;;;;4.80;3.50;;;-0.90;99.90;;;;;;5087328;28;20240;-70
2021/01/11 05:28:38;;;;;;;6.17;3.20;;;-0.90;99.90;;;;;;5095275;28;20476;-70
2021/01/11 05:31:04;;;;;;;10.47;5.67;;;-1.00;99.90;;;;;;5112533;28;20544;-70
2021/01/11 05:33:30;;;;;;;9.20;4.77;;;-1.00;99.90;;;;;;5073433;28;20321;-69
2021/01/11 05:36:09;;;;;;;15.47;4.33;;;-1.00;99.90;;;;;;5071969;28;20239;-70
2021/01/11 05:38:38;;;;;;;7.27;4.50;;;-1.00;99.90;;;;;;5113165;28;20234;-69
2021/01/11 05:41:18;;;;;;;10.10;4.40;;;-1.00;99.90;;;;;;5072194;27;20493;-70
2021/01/11 05:44:06;;;;;;;8.17;6.03;;;-1.00;99.90;;;;;;5102004;28;20461;-71
2021/01/11 05:46:31;;;;;;;6.80;5.13;;;-1.10;99.90;;;;;;5083857;28;20448;-71
2021/01/11 05:49:03;;;;;;;12.87;6.73;;;-1.10;99.90;;;;;;5078742;28;20550;-71
2021/01/11 05:51:30;;;;;;;7.40;5.57;;;-1.10;99.90;;;;;;5095541;28;20225;-70
2021/01/11 05:53:56;;;;;;;12.67;6.90;;;-1.10;99.90;;;;;;5094767;28;20497;-69
2021/01/11 05:56:26;;;;;;;12.93;7.50;;;-1.10;99.90;;;;;;5091632;28;20489;-71
2021/01/11 05:59:06;;;;;;;12.00;6.67;;;-1.10;99.90;;;;;;5099093;27;20827;-70
2021/01/11 06:01:33;;;;;;;9.53;6.30;;;-1.10;99.90;;;;;;5082586;27;20522;-69
2021/01/11 06:03:59;;;;;;;14.27;6.00;;;-1.20;99.90;;;;;;5089532;27;20539;-70
2021/01/11 06:06:25;;;;;;;11.67;5.83;;;-1.10;99.90;;;;;;5092764;28;21000;-68
2021/01/11 06:08:52;;;;;;;9.40;5.77;;;-1.20;99.90;;;;;;5075101;28;20459;-69
2021/01/11 06:11:25;;;;;;;9.20;6.13;;;-1.20;99.90;;;;;;5075583;28;20447;-68
2021/01/11 06:13:53;;;;;;;9.40;6.53;;;-1.20;99.90;;;;;;5091397;28;20452;-67
2021/01/11 06:16:19;;;;;;;11.50;6.57;;;-1.20;99.90;;;;;;5075254;28;20456;-68
2021/01/11 06:18:49;;;;;;;9.07;5.90;;;-1.20;99.90;;;;;;5075876;28;20487;-68
2021/01/11 06:21:15;;;;;;;8.83;4.93;;;-1.20;99.90;;;;;;5074651;27;20915;-68
2021/01/11 06:23:41;;;;;;;8.60;5.13;;;-1.20;99.90;;;;;;5075333;28;21077;-68
2021/01/11 06:26:25;;;;;;;9.53;5.77;;;-1.20;99.90;;;;;;5074607;27;20457;-70
2021/01/11 06:28:51;;;;;;;10.57;5.53;;;-1.30;99.90;;;;;;5085128;28;20226;-69
2021/01/11 06:31:18;;;;;;;7.17;4.73;;;-1.30;99.90;;;;;;5082710;28;20447;-68
2021/01/11 06:33:44;;;;;;;13.90;6.20;;;-1.30;99.90;;;;;;5057424;28;20527;-69
2021/01/11 06:36:32;;;;;;;5.90;4.87;;;-1.30;99.90;;;;;;5061662;28;20521;-70
2021/01/11 06:39:10;;;;;;;7.80;4.73;;;-1.30;99.90;;;;;;5090815;28;21019;-68
2021/01/11 06:41:37;;;;;;;12.27;6.50;;;-1.30;99.90;;;;;;5064812;28;20467;-68
2021/01/11 06:44:05;;;;;;;12.93;7.93;;;-1.30;99.90;;;;;;5063066;28;20468;-67
2021/01/11 06:46:31;;;;;;;14.33;7.23;;;-1.30;99.90;;;;;;5076619;27;20462;-68
2021/01/11 06:49:04;;;;;;;14.40;7.00;;;-1.30;99.90;;;;;;5095078;28;20526;-69
2021/01/11 06:51:40;;;;;;;14.80;6.40;;;-1.40;99.90;;;;;;5093792;28;20248;-68
2021/01/11 06:54:16;;;;;;;11.73;6.17;;;-1.40;99.90;;;;;;5103693;28;20490;-68
2021/01/11 06:56:43;;;;;;;10.77;6.10;;;-1.40;99.90;;;;;;5096029;28;20553;-68
2021/01/11 06:59:13;;;;;;;10.90;6.57;;;-1.40;99.90;;;;;;5095138;28;20451;-68
2021/01/11 07:01:42;;;;;;;9.37;5.53;;;-1.40;99.90;;;;;;5109361;28;20457;-68
2021/01/11 07:04:10;;;;;;;9.37;5.77;;;-1.40;99.90;;;;;;5080326;28;20448;-68
2021/01/11 07:06:37;;;;;;;11.77;6.97;;;-1.40;99.90;;;;;;5092308;28;20460;-70
2021/01/11 07:09:04;;;;;;;9.83;5.27;;;-1.40;99.90;;;;;;5084521;28;20454;-68
2021/01/11 07:11:35;;;;;;;8.60;4.80;;;-1.40;99.90;;;;;;5088105;28;20994;-70
2021/01/11 07:14:02;;;;;;;8.53;4.97;;;-1.50;99.90;;;;;;5091746;27;20453;-71
2021/01/11 07:16:47;;;;;;;7.67;5.53;;;-1.60;99.90;;;;;;5083206;28;20463;-69
2021/01/11 07:19:42;;;;;;;7.70;4.40;;;-1.60;99.90;;;;;;5079177;28;20462;-69
2021/01/11 07:22:11;;;;;;;10.57;5.37;;;-1.50;99.90;;;;;;5081921;28;20462;-68
2021/01/11 07:24:41;;;;;;;7.50;4.80;;;-1.60;99.90;;;;;;5096169;28;20468;-69
2021/01/11 07:27:08;;;;;;;11.70;4.93;;;-1.60;99.90;;;;;;5078810;27;20470;-68
2021/01/11 07:29:33;;;;;;;11.40;6.00;;;-1.60;99.90;;;;;;5083684;28;20499;-68
2021/01/11 07:31:59;;;;;;;6.50;4.97;;;-1.50;99.90;;;;;;5077344;28;20493;-69
2021/01/11 07:34:25;;;;;;;10.70;6.07;;;-1.50;99.90;;;;;;5070424;27;20241;-68
2021/01/11 07:36:53;;;;;;;12.07;6.37;;;-1.60;99.90;;;;;;5078044;28;20456;-69
2021/01/11 07:39:21;;;;;;;11.00;6.63;;;-1.60;99.90;;;;;;5073931;28;20702;-69
2021/01/11 07:41:49;;;;;;;15.67;7.20;;;-1.60;99.90;;;;;;5073434;27;20454;-68
2021/01/11 07:44:16;;;;;;;11.03;6.73;;;-1.60;99.90;;;;;;5096309;28;20450;-68
2021/01/11 07:46:43;;;;;;;12.60;8.10;;;-1.60;99.90;;;;;;5064693;28;20498;-67
2021/01/11 07:49:16;;;;;;;14.57;9.43;;;-1.60;99.90;;;;;;5052609;28;20489;-68
2021/01/11 07:51:44;;;;;;;15.27;8.03;;;-1.60;99.90;;;;;;5086164;28;20454;-69
2021/01/11 07:54:14;;;;;;;9.90;6.00;;;-1.60;99.90;;;;;;5074799;28;20453;-68
2021/01/11 07:56:41;;;;;;;9.57;5.83;;;-1.60;99.90;;;;;;5075933;28;20512;-69
2021/01/11 07:59:07;;;;;;;12.63;5.70;;;-1.60;99.90;;;;;;5087691;28;20877;-69
2021/01/11 08:01:41;;;;;;;9.80;6.27;;;-1.60;99.90;;;;;;5095227;28;20458;-69
2021/01/11 08:04:10;;;;;;;9.23;4.53;;;-1.60;99.90;;;;;;5113096;28;20453;-69
2021/01/11 08:06:49;;;;;;;10.80;6.33;;;-1.60;99.90;;;;;;5095490;28;20467;-68
2021/01/11 08:09:16;;;;;;;14.03;7.20;;;-1.60;99.90;;;;;;5094516;28;20948;-69
2021/01/11 08:11:42;;;;;;;7.97;5.93;;;-1.60;99.90;;;;;;5062529;28;20456;-68
2021/01/11 08:14:09;;;;;;;6.47;5.47;;;-1.60;99.90;;;;;;5090151;28;20813;-69
2021/01/11 08:16:36;;;;;;;11.83;6.77;;;-1.60;99.90;;;;;;5068915;28;20463;-68
2021/01/11 08:19:09;;;;;;;8.00;4.20;;;-1.70;99.90;;;;;;5080504;27;20464;-68
2021/01/11 08:21:35;;;;;;;6.63;4.80;;;-1.70;99.90;;;;;;5081309;28;20465;-69
2021/01/11 08:24:09;;;;;;;9.97;5.27;;;-1.70;99.90;;;;;;5077319;28;20448;-69
2021/01/11 08:26:54;;;;;;;8.73;5.20;;;-1.60;99.90;;;;;;5092849;28;20459;-69
2021/01/11 08:29:20;;;;;;;8.73;5.90;;;-1.60;99.90;;;;;;5093951;28;20450;-68
2021/01/11 08:31:46;;;;;;;11.97;7.40;;;-1.60;99.90;;;;;;5077537;28;20471;-69
2021/01/11 08:34:13;;;;;;;12.40;7.70;;;-1.50;99.90;;;;;;5068215;28;20463;-69
2021/01/11 08:36:38;;;;;;;8.50;5.80;;;-1.50;99.90;;;;;;5065494;28;20454;-68
2021/01/11 08:39:13;;;;;;;7.97;4.67;;;-1.50;99.90;;;;;;5077315;28;20471;-68
2021/01/11 08:41:47;;;;;;;5.40;4.23;;;-1.50;99.90;;;;;;5060746;28;21119;-69
2021/01/11 08:44:24;;;;;;;8.63;5.50;;;-1.50;99.90;;;;;;5072752;28;20451;-69
2021/01/11 08:47:00;;;;;;;6.80;4.70;;;-1.50;99.90;;;;;;5072056;28;20455;-69
2021/01/11 08:49:27;;;;;;;6.10;4.57;;;-1.40;99.90;;;;;;5096790;27;20457;-71
2021/01/11 08:51:53;;;;;;;8.93;6.00;;;-1.40;99.90;;;;;;5081563;28;20527;-68
2021/01/11 08:54:29;;;;;;;8.60;5.10;;;-1.40;99.90;;;;;;5076283;28;20449;-68
2021/01/11 08:56:57;;;;;;;9.40;4.90;;;-1.40;99.90;;;;;;5106490;27;20458;-67
2021/01/11 08:59:23;;;;;;;8.07;5.50;;;-1.30;99.90;;;;;;5042880;28;20525;-68
2021/01/11 09:01:49;;;;;;;8.53;5.20;;;-1.30;99.90;;;;;;5088468;28;20444;-68
2021/01/11 09:04:35;;;;;;;8.13;4.67;;;-1.20;99.90;;;;;;5080261;27;20438;-68
2021/01/11 09:07:03;;;;;;;7.10;4.37;;;-1.20;99.90;;;;;;5093735;28;20454;-68
2021/01/11 09:09:30;;;;;;;8.20;3.80;;;-1.20;99.90;;;;;;5073597;28;20468;-68
2021/01/11 09:12:06;;;;;;;9.30;4.90;;;-1.10;99.90;;;;;;5080508;27;20441;-68
2021/01/11 09:14:34;;;;;;;7.70;4.77;;;-1.10;99.90;;;;;;5095312;28;20468;-68
2021/01/11 09:17:04;;;;;;;9.83;6.23;;;-1.00;99.90;;;;;;5067893;27;20446;-67
2021/01/11 09:19:34;;;;;;;6.47;4.10;;;-1.00;99.90;;;;;;5080405;27;20458;-68
2021/01/11 09:22:03;;;;;;;11.73;4.70;;;-1.00;99.90;;;;;;5096187;27;20561;-69
2021/01/11 09:24:29;;;;;;;7.17;4.20;;;-1.00;99.90;;;;;;5096848;27;20442;-69
2021/01/11 09:26:55;;;;;;;9.03;5.87;;;-1.00;99.90;;;;;;5097374;28;20603;-68
2021/01/11 09:29:22;;;;;;;8.10;5.47;;;-0.90;99.90;;;;;;5087857;28;20456;-68
2021/01/11 09:31:48;;;;;;;6.90;5.10;;;-0.90;99.90;;;;;;5068192;28;20448;-67
2021/01/11 09:34:14;;;;;;;16.03;5.93;;;-0.90;99.90;;;;;;5056130;28;20513;-67
2021/01/11 09:36:40;;;;;;;11.17;6.70;;;-0.80;99.90;;;;;;5074107;28;20460;-68
2021/01/11 09:39:08;;;;;;;11.93;8.40;;;-0.80;99.90;;;;;;5075572;28;20226;-68
2021/01/11 09:41:51;;;;;;;14.33;7.60;;;-0.80;99.90;;;;;;5070044;28;20289;-67
2021/01/11 09:44:18;;;;;;;11.67;5.73;;;-0.70;99.90;;;;;;5125581;27;21003;-67
2021/01/11 09:46:54;;;;;;;7.77;5.37;;;-0.70;99.90;;;;;;5093578;28;20467;-68
2021/01/11 09:49:20;;;;;;;8.10;4.43;;;-0.70;99.90;;;;;;5066439;27;20448;-68
2021/01/11 09:51:47;;;;;;;6.17;4.10;;;-0.70;99.90;;;;;;5085486;28;21035;-68
2021/01/11 09:54:13;;;;;;;7.00;4.83;;;-0.60;99.90;;;;;;5093767;27;20470;-68
2021/01/11 09:56:39;;;;;;;7.03;5.07;;;-0.60;99.90;;;;;;5088118;27;20554;-68
2021/01/11 09:59:06;;;;;;;11.23;6.43;;;-0.60;99.90;;;;;;5070472;28;20479;-68
2021/01/11 10:01:36;;;;;;;10.00;6.13;;;-0.60;99.90;;;;;;5090466;28;20538;-69
2021/01/11 10:04:02;;;;;;;10.67;6.13;;;-0.60;99.90;;;;;;5059326;28;20524;-68
2021/01/11 10:06:27;;;;;;;19.20;6.37;;;-0.50;99.90;;;;;;5072702;28;20486;-68
2021/01/11 10:08:53;;;;;;;7.93;5.63;;;-0.50;99.90;;;;;;5084146;28;20226;-67
2021/01/11 10:11:19;;;;;;;8.80;5.17;;;-0.50;99.90;;;;;;5087761;28;20257;-69
2021/01/11 10:13:44;;;;;;;9.87;5.90;;;-0.50;99.90;;;;;;5072884;28;20268;-68
2021/01/11 10:16:10;;;;;;;11.33;4.20;;;-0.50;99.90;;;;;;5055649;28;20269;-67
2021/01/11 10:18:37;;;;;;;10.87;5.30;;;-0.40;99.90;;;;;;5066821;28;20226;-68
2021/01/11 10:21:03;;;;;;;8.60;5.50;;;-0.40;99.90;;;;;;5074882;27;20217;-69
2021/01/11 10:23:28;;;;;;;8.83;4.77;;;-0.40;99.90;;;;;;5096243;27;20969;-67
2021/01/11 10:25:55;;;;;;;12.57;5.23;;;-0.30;99.90;;;;;;5078628;28;20266;-68
2021/01/11 10:28:20;;;;;;;8.97;6.77;;;-0.20;99.90;;;;;;5094708;27;20221;-68
2021/01/11 10:30:46;;;;;;;17.67;8.33;;;-0.20;99.90;;;;;;5076824;27;20850;-68
2021/01/11 10:33:12;;;;;;;9.83;6.40;;;-0.10;99.90;;;;;;5109903;27;20619;-68
2021/01/11 10:35:37;;;;;;;15.30;8.87;;;0.00;99.90;;;;;;5079804;27;20272;-69
2021/01/11 10:38:03;;;;;;;19.60;10.57;;;0.00;99.90;;;;;;5112399;27;20249;-69
2021/01/11 10:40:29;;;;;;;18.73;7.90;;;0.10;99.90;;;;;;5074784;28;20709;-68
2021/01/11 10:42:54;;;;;;;19.53;8.20;;;0.10;99.90;;;;;;5083343;28;20666;-68
2021/01/11 10:45:20;;;;;;;10.33;5.73;;;0.20;99.90;;;;;;5058031;28;20210;-68
2021/01/11 10:47:46;;;;;;;10.97;6.80;;;0.20;99.90;;;;;;5058755;28;20218;-68
2021/01/11 10:50:12;;;;;;;8.60;5.47;;;0.30;99.90;;;;;;5088570;27;20217;-69
2021/01/11 10:52:39;;;;;;;10.33;5.47;;;0.30;99.90;;;;;;5095862;28;20227;-68
2021/01/11 10:55:05;;;;;;;13.70;7.60;;;0.40;99.90;;;;;;5104159;28;20225;-68
2021/01/11 10:57:31;;;;;;;24.50;8.47;;;0.50;99.90;;;;;;5105719;28;20468;-69
2021/01/11 10:59:57;;;;;;;22.20;10.33;;;0.50;99.90;;;;;;5074879;28;20452;-68
2021/01/11 11:02:22;;;;;;;15.23;9.27;;;0.60;99.90;;;;;;5040496;28;20282;-69
2021/01/11 11:04:48;;;;;;;20.53;10.17;;;0.60;99.90;;;;;;5074117;28;20565;-68
2021/01/11 11:07:14;;;;;;;15.77;8.50;;;0.70;99.90;;;;;;5088204;28;20249;-68
2021/01/11 11:09:39;;;;;;;14.03;6.87;;;0.70;99.90;;;;;;5054770;28;20222;-68
2021/01/11 11:12:05;;;;;;;9.47;5.97;;;0.80;99.90;;;;;;5076562;28;20262;-68
2021/01/11 11:14:31;;;;;;;11.67;5.87;;;0.90;99.90;;;;;;5092284;28;20259;-68
2021/01/11 11:16:57;;;;;;;12.17;4.90;;;0.90;99.90;;;;;;5075118;28;20219;-68
2021/01/11 11:19:23;;;;;;;11.63;5.40;;;1.00;99.90;;;;;;5075514;28;20747;-69
2021/01/11 11:21:48;;;;;;;13.50;6.03;;;0.90;99.90;;;;;;5074410;28;20593;-68
2021/01/11 11:24:14;;;;;;;11.87;6.00;;;0.90;99.90;;;;;;5092606;28;20214;-68
2021/01/11 11:26:40;;;;;;;7.90;4.80;;;0.90;99.90;;;;;;5094034;28;20221;-69
2021/01/11 11:29:05;;;;;;;6.23;4.10;;;1.00;99.90;;;;;;5109764;28;20228;-68
2021/01/11 11:31:33;;;;;;;6.80;5.30;;;1.00;99.90;;;;;;5067930;28;20215;-70
2021/01/11 11:33:59;;;;;;;13.57;8.10;;;1.00;99.90;;;;;;5068787;28;20219;-69
2021/01/11 11:36:25;;;;;;;12.00;6.63;;;1.10;99.90;;;;;;5086365;28;20457;-69
2021/01/11 11:38:50;;;;;;;10.27;6.07;;;1.20;99.90;;;;;;5071488;28;20481;-68
2021/01/11 11:41:20;;;;;;;12.63;6.37;;;1.40;99.90;;;;;;5069974;28;20218;-68
2021/01/11 11:43:46;;;;;;;12.47;5.80;;;1.60;99.90;;;;;;5052259;28;20287;-69
2021/01/11 11:46:13;;;;;;;9.73;6.30;;;1.60;99.90;;;;;;5072989;28;20453;-69
2021/01/11 11:48:39;;;;;;;8.80;5.70;;;1.70;99.90;;;;;;5071467;28;20508;-68
2021/01/11 11:51:05;;;;;;;9.33;6.20;;;1.80;99.90;;;;;;5074494;28;20488;-68
2021/01/11 11:53:30;;;;;;;10.63;5.70;;;1.90;99.90;;;;;;5091630;28;20305;-69
2021/01/11 11:55:56;;;;;;;9.10;5.13;;;2.00;99.90;;;;;;5074022;28;20238;-69
2021/01/11 11:58:22;;;;;;;8.43;6.07;;;2.00;99.90;;;;;;5055586;28;20229;-69
2021/01/11 12:00:48;;;;;;;8.27;5.67;;;2.00;99.90;;;;;;5073900;28;20228;-69
2021/01/11 12:03:14;;;;;;;8.67;5.37;;;2.10;99.90;;;;;;5058112;28;20505;-68
2021/01/11 12:05:40;;;;;;;11.10;5.57;;;2.10;99.90;;;;;;5058331;28;20211;-69
2021/01/11 12:08:05;;;;;;;8.53;5.40;;;2.30;99.90;;;;;;5094975;27;20531;-68
2021/01/11 12:10:31;;;;;;;12.00;6.80;;;2.40;99.90;;;;;;5092124;27;20454;-68
2021/01/11 12:12:57;;;;;;;9.57;5.60;;;2.50;99.90;;;;;;5065366;28;20249;-69
2021/01/11 12:15:23;;;;;;;7.87;5.23;;;2.70;99.90;;;;;;5075910;28;20214;-69
2021/01/11 12:17:49;;;;;;;8.90;4.80;;;3.00;99.90;;;;;;5102895;28;20505;-68
2021/01/11 12:20:15;;;;;;;10.77;5.53;;;3.10;99.90;;;;;;5043990;28;20292;-70
2021/01/11 12:22:40;;;;;;;8.77;5.03;;;3.10;99.90;;;;;;5075412;27;20221;-69
2021/01/11 12:25:07;;;;;;;11.07;5.60;;;3.20;99.90;;;;;;5085907;28;20214;-68
2021/01/11 12:27:33;;;;;;;7.77;6.07;;;3.20;99.90;;;;;;5069210;28;20225;-70
2021/01/11 12:29:59;;;;;;;13.70;6.40;;;3.20;99.90;;;;;;5056816;28;20462;-69
2021/01/11 12:32:25;;;;;;;13.73;5.90;;;3.30;99.90;;;;;;5044516;28;20475;-69
2021/01/11 12:34:51;;;;;;;11.90;5.13;;;3.40;99.90;;;;;;5094753;28;20510;-69
2021/01/11 12:37:18;;;;;;;7.13;4.17;;;3.50;99.90;;;;;;5066526;27;20228;-69
2021/01/11 12:39:44;;;;;;;7.63;4.93;;;3.60;99.90;;;;;;5080565;27;20705;-68
2021/01/11 12:42:11;;;;;;;11.70;4.47;;;3.60;99.90;;;;;;5082960;28;20463;-69
2021/01/11 12:44:37;;;;;;;7.70;4.00;;;3.60;99.90;;;;;;5094432;27;20496;-69
2021/01/11 12:47:04;;;;;;;6.70;4.97;;;3.70;99.90;;;;;;5119856;27;20536;-68
2021/01/11 12:49:30;;;;;;;13.00;5.93;;;3.70;99.90;;;;;;5077164;28;20553;-69
2021/01/11 12:51:57;;;;;;;5.67;4.10;;;3.80;99.90;;;;;;5060624;28;20457;-69